Terminal Aerodrome Forecast
Issued by NWS Cleveland, OH

Home | Current Version | Previous Version | Text Only | Print | Product List | Glossary Off
Versions: 1 2 3 4 5 6 7 8 9 10 11 12 13 14 15 16 17 18 19 20 21 22 23 24 25

488
FTUS41 KCLE 050857 AAA
TAFCLE
TAF AMD
KCLE 050857Z 0509/0612 24007KT P6SM BKN025 OVC035
      TEMPO 0609/0611 SCT025 BKN035
     FM061100 27005KT P6SM BKN040=

USA.gov is the U.S. government's official web portal to all federal, state and local government web resources and services.